sensor_id;sensor_type;location;lat;lon;timestamp;P1;durP1;ratioP1;P2;durP2;ratioP2
2638;SDS011;1329;51.384;7.122;2022-10-16T00:00:41;4.20;;;2.50;;
2638;SDS011;1329;51.384;7.122;2022-10-16T00:03:09;4.65;;;2.80;;
2638;SDS011;1329;51.384;7.122;2022-10-16T00:05:40;4.45;;;2.83;;
2638;SDS011;1329;51.384;7.122;2022-10-16T00:08:10;3.15;;;2.88;;
2638;SDS011;1329;51.384;7.122;2022-10-16T00:10:38;2.90;;;2.70;;
2638;SDS011;1329;51.384;7.122;2022-10-16T00:13:07;3.30;;;2.40;;
2638;SDS011;1329;51.384;7.122;2022-10-16T00:15:36;4.70;;;2.67;;
2638;SDS011;1329;51.384;7.122;2022-10-16T00:18:04;3.85;;;2.28;;
2638;SDS011;1329;51.384;7.122;2022-10-16T00:20:33;2.92;;;2.40;;
2638;SDS011;1329;51.384;7.122;2022-10-16T00:23:02;2.65;;;2.38;;
2638;SDS011;1329;51.384;7.122;2022-10-16T00:25:30;3.15;;;2.30;;
2638;SDS011;1329;51.384;7.122;2022-10-16T00:27:58;3.20;;;2.28;;
2638;SDS011;1329;51.384;7.122;2022-10-16T00:30:27;2.92;;;2.30;;
2638;SDS011;1329;51.384;7.122;2022-10-16T00:32:54;2.50;;;2.30;;
2638;SDS011;1329;51.384;7.122;2022-10-16T00:35:22;2.67;;;2.30;;
2638;SDS011;1329;51.384;7.122;2022-10-16T00:37:49;3.75;;;2.67;;
2638;SDS011;1329;51.384;7.122;2022-10-16T00:40:16;3.20;;;2.17;;
2638;SDS011;1329;51.384;7.122;2022-10-16T00:42:44;2.35;;;2.15;;
2638;SDS011;1329;51.384;7.122;2022-10-16T00:45:11;2.42;;;1.90;;
2638;SDS011;1329;51.384;7.122;2022-10-16T00:47:40;2.08;;;1.92;;
2638;SDS011;1329;51.384;7.122;2022-10-16T00:50:13;1.95;;;1.75;;
2638;SDS011;1329;51.384;7.122;2022-10-16T00:52:47;2.20;;;2.00;;
2638;SDS011;1329;51.384;7.122;2022-10-16T00:55:16;2.63;;;1.90;;
2638;SDS011;1329;51.384;7.122;2022-10-16T00:57:46;3.38;;;1.90;;
2638;SDS011;1329;51.384;7.122;2022-10-16T01:00:15;1.85;;;1.75;;
2638;SDS011;1329;51.384;7.122;2022-10-16T01:02:52;2.72;;;1.73;;
2638;SDS011;1329;51.384;7.122;2022-10-16T01:05:21;2.00;;;1.80;;
2638;SDS011;1329;51.384;7.122;2022-10-16T01:07:50;1.70;;;1.60;;
2638;SDS011;1329;51.384;7.122;2022-10-16T01:10:26;2.80;;;1.70;;
2638;SDS011;1329;51.384;7.122;2022-10-16T01:12:59;2.10;;;1.90;;
2638;SDS011;1329;51.384;7.122;2022-10-16T01:15:31;2.50;;;1.90;;
2638;SDS011;1329;51.384;7.122;2022-10-16T01:18:05;2.10;;;1.80;;
2638;SDS011;1329;51.384;7.122;2022-10-16T01:20:42;2.85;;;1.83;;
2638;SDS011;1329;51.384;7.122;2022-10-16T01:23:16;2.88;;;1.60;;
2638;SDS011;1329;51.384;7.122;2022-10-16T01:25:59;2.00;;;1.80;;
2638;SDS011;1329;51.384;7.122;2022-10-16T01:28:44;3.67;;;1.70;;
2638;SDS011;1329;51.384;7.122;2022-10-16T01:31:18;2.63;;;1.88;;
2638;SDS011;1329;51.384;7.122;2022-10-16T01:33:51;2.63;;;1.77;;
2638;SDS011;1329;51.384;7.122;2022-10-16T01:36:26;1.83;;;1.73;;
2638;SDS011;1329;51.384;7.122;2022-10-16T01:39:02;2.08;;;1.63;;
2638;SDS011;1329;51.384;7.122;2022-10-16T01:41:31;2.75;;;2.05;;
2638;SDS011;1329;51.384;7.122;2022-10-16T01:44:03;2.80;;;1.88;;
2638;SDS011;1329;51.384;7.122;2022-10-16T01:46:36;3.45;;;1.98;;
2638;SDS011;1329;51.384;7.122;2022-10-16T01:49:05;2.13;;;1.90;;
2638;SDS011;1329;51.384;7.122;2022-10-16T01:51:34;3.30;;;1.83;;
2638;SDS011;1329;51.384;7.122;2022-10-16T01:54:03;2.40;;;2.20;;
2638;SDS011;1329;51.384;7.122;2022-10-16T01:56:34;1.98;;;1.88;;
2638;SDS011;1329;51.384;7.122;2022-10-16T01:59:05;2.20;;;2.00;;
2638;SDS011;1329;51.384;7.122;2022-10-16T02:01:36;2.30;;;1.70;;
2638;SDS011;1329;51.384;7.122;2022-10-16T02:04:09;2.33;;;1.70;;
2638;SDS011;1329;51.384;7.122;2022-10-16T02:06:44;2.67;;;2.03;;
2638;SDS011;1329;51.384;7.122;2022-10-16T02:09:11;2.33;;;1.83;;
2638;SDS011;1329;51.384;7.122;2022-10-16T02:11:42;2.55;;;1.75;;
2638;SDS011;1329;51.384;7.122;2022-10-16T02:14:11;1.67;;;1.58;;
2638;SDS011;1329;51.384;7.122;2022-10-16T02:16:39;3.20;;;2.20;;
2638;SDS011;1329;51.384;7.122;2022-10-16T02:19:08;2.00;;;1.80;;
2638;SDS011;1329;51.384;7.122;2022-10-16T02:21:39;1.70;;;1.60;;
2638;SDS011;1329;51.384;7.122;2022-10-16T02:24:11;2.15;;;1.85;;
2638;SDS011;1329;51.384;7.122;2022-10-16T02:26:51;2.60;;;1.80;;
2638;SDS011;1329;51.384;7.122;2022-10-16T02:29:28;1.70;;;1.60;;
2638;SDS011;1329;51.384;7.122;2022-10-16T02:31:56;1.80;;;1.70;;
2638;SDS011;1329;51.384;7.122;2022-10-16T02:34:27;2.72;;;1.80;;
2638;SDS011;1329;51.384;7.122;2022-10-16T02:36:58;3.05;;;1.70;;
2638;SDS011;1329;51.384;7.122;2022-10-16T02:39:27;1.92;;;1.60;;
2638;SDS011;1329;51.384;7.122;2022-10-16T02:41:56;2.03;;;1.75;;
2638;SDS011;1329;51.384;7.122;2022-10-16T02:44:23;2.92;;;2.00;;
2638;SDS011;1329;51.384;7.122;2022-10-16T02:46:51;1.80;;;1.67;;
2638;SDS011;1329;51.384;7.122;2022-10-16T02:49:18;2.10;;;1.63;;
2638;SDS011;1329;51.384;7.122;2022-10-16T02:51:45;1.70;;;1.60;;
2638;SDS011;1329;51.384;7.122;2022-10-16T02:54:13;2.22;;;1.58;;
2638;SDS011;1329;51.384;7.122;2022-10-16T02:56:40;2.25;;;1.52;;
2638;SDS011;1329;51.384;7.122;2022-10-16T02:59:06;1.75;;;1.65;;
2638;SDS011;1329;51.384;7.122;2022-10-16T03:01:33;1.70;;;1.60;;
2638;SDS011;1329;51.384;7.122;2022-10-16T03:04:02;1.67;;;1.58;;
2638;SDS011;1329;51.384;7.122;2022-10-16T03:06:29;1.65;;;1.55;;
2638;SDS011;1329;51.384;7.122;2022-10-16T03:08:56;2.10;;;1.70;;
2638;SDS011;1329;51.384;7.122;2022-10-16T03:11:23;1.75;;;1.65;;
2638;SDS011;1329;51.384;7.122;2022-10-16T03:13:51;1.60;;;1.50;;
2638;SDS011;1329;51.384;7.122;2022-10-16T03:16:18;2.63;;;1.52;;
2638;SDS011;1329;51.384;7.122;2022-10-16T03:18:47;1.58;;;1.40;;
2638;SDS011;1329;51.384;7.122;2022-10-16T03:21:16;1.80;;;1.33;;
2638;SDS011;1329;51.384;7.122;2022-10-16T03:23:43;2.58;;;1.38;;
2638;SDS011;1329;51.384;7.122;2022-10-16T03:26:11;1.33;;;1.23;;
2638;SDS011;1329;51.384;7.122;2022-10-16T03:28:38;1.38;;;1.27;;
2638;SDS011;1329;51.384;7.122;2022-10-16T03:31:05;1.50;;;1.40;;
2638;SDS011;1329;51.384;7.122;2022-10-16T03:33:33;1.98;;;1.27;;
2638;SDS011;1329;51.384;7.122;2022-10-16T03:36:00;1.35;;;1.25;;
2638;SDS011;1329;51.384;7.122;2022-10-16T03:38:29;1.55;;;1.30;;
2638;SDS011;1329;51.384;7.122;2022-10-16T03:40:56;1.30;;;1.30;;
2638;SDS011;1329;51.384;7.122;2022-10-16T03:43:23;1.35;;;1.25;;
2638;SDS011;1329;51.384;7.122;2022-10-16T03:45:50;1.50;;;1.40;;
2638;SDS011;1329;51.384;7.122;2022-10-16T03:48:17;1.48;;;1.38;;
2638;SDS011;1329;51.384;7.122;2022-10-16T03:50:44;1.38;;;1.27;;
2638;SDS011;1329;51.384;7.122;2022-10-16T03:53:13;1.85;;;1.48;;
2638;SDS011;1329;51.384;7.122;2022-10-16T03:55:42;1.30;;;1.17;;
2638;SDS011;1329;51.384;7.122;2022-10-16T03:58:10;1.27;;;1.17;;
2638;SDS011;1329;51.384;7.122;2022-10-16T04:00:39;1.30;;;1.20;;
2638;SDS011;1329;51.384;7.122;2022-10-16T04:03:07;1.30;;;1.20;;
2638;SDS011;1329;51.384;7.122;2022-10-16T04:05:34;1.35;;;1.10;;
2638;SDS011;1329;51.384;7.122;2022-10-16T04:08:01;1.42;;;1.20;;
2638;SDS011;1329;51.384;7.122;2022-10-16T04:10:29;1.52;;;1.27;;
2638;SDS011;1329;51.384;7.122;2022-10-16T04:12:57;1.30;;;1.20;;
2638;SDS011;1329;51.384;7.122;2022-10-16T04:15:24;1.30;;;1.20;;
2638;SDS011;1329;51.384;7.122;2022-10-16T04:17:52;1.25;;;1.20;;
2638;SDS011;1329;51.384;7.122;2022-10-16T04:20:19;1.30;;;1.20;;
2638;SDS011;1329;51.384;7.122;2022-10-16T04:22:46;2.65;;;1.30;;
2638;SDS011;1329;51.384;7.122;2022-10-16T04:25:13;1.27;;;1.17;;
2638;SDS011;1329;51.384;7.122;2022-10-16T04:27:40;1.20;;;1.10;;
2638;SDS011;1329;51.384;7.122;2022-10-16T04:30:09;1.27;;;1.17;;
2638;SDS011;1329;51.384;7.122;2022-10-16T04:32:37;2.60;;;1.27;;
2638;SDS011;1329;51.384;7.122;2022-10-16T04:35:04;2.25;;;1.17;;
2638;SDS011;1329;51.384;7.122;2022-10-16T04:37:33;1.27;;;1.13;;
2638;SDS011;1329;51.384;7.122;2022-10-16T04:40:00;2.10;;;1.10;;
2638;SDS011;1329;51.384;7.122;2022-10-16T04:42:27;1.40;;;1.05;;
2638;SDS011;1329;51.384;7.122;2022-10-16T04:44:54;1.25;;;1.13;;
2638;SDS011;1329;51.384;7.122;2022-10-16T04:47:22;1.17;;;1.05;;
2638;SDS011;1329;51.384;7.122;2022-10-16T04:49:50;1.95;;;1.10;;
2638;SDS011;1329;51.384;7.122;2022-10-16T04:52:17;1.10;;;1.00;;
2638;SDS011;1329;51.384;7.122;2022-10-16T04:54:44;1.00;;;0.90;;
2638;SDS011;1329;51.384;7.122;2022-10-16T04:57:11;1.83;;;1.15;;
2638;SDS011;1329;51.384;7.122;2022-10-16T04:59:38;1.48;;;1.40;;
2638;SDS011;1329;51.384;7.122;2022-10-16T05:02:05;1.88;;;1.20;;
2638;SDS011;1329;51.384;7.122;2022-10-16T05:04:34;1.30;;;1.20;;
2638;SDS011;1329;51.384;7.122;2022-10-16T05:07:01;1.75;;;1.48;;
2638;SDS011;1329;51.384;7.122;2022-10-16T05:09:28;1.50;;;1.23;;
2638;SDS011;1329;51.384;7.122;2022-10-16T05:11:56;1.30;;;1.20;;
2638;SDS011;1329;51.384;7.122;2022-10-16T05:14:23;1.45;;;1.35;;
2638;SDS011;1329;51.384;7.122;2022-10-16T05:16:50;2.58;;;1.10;;
2638;SDS011;1329;51.384;7.122;2022-10-16T05:19:17;1.15;;;1.10;;
2638;SDS011;1329;51.384;7.122;2022-10-16T05:21:45;2.22;;;1.58;;
2638;SDS011;1329;51.384;7.122;2022-10-16T05:24:13;1.40;;;1.30;;
2638;SDS011;1329;51.384;7.122;2022-10-16T05:26:40;1.38;;;1.27;;
2638;SDS011;1329;51.384;7.122;2022-10-16T05:29:07;1.40;;;1.30;;
2638;SDS011;1329;51.384;7.122;2022-10-16T05:31:35;1.58;;;1.30;;
2638;SDS011;1329;51.384;7.122;2022-10-16T05:34:02;2.92;;;1.13;;
2638;SDS011;1329;51.384;7.122;2022-10-16T05:36:29;1.85;;;1.30;;
2638;SDS011;1329;51.384;7.122;2022-10-16T05:38:58;1.73;;;1.17;;
2638;SDS011;1329;51.384;7.122;2022-10-16T05:41:25;1.73;;;1.15;;
2638;SDS011;1329;51.384;7.122;2022-10-16T05:43:52;1.20;;;1.10;;
2638;SDS011;1329;51.384;7.122;2022-10-16T05:46:19;1.35;;;1.25;;
2638;SDS011;1329;51.384;7.122;2022-10-16T05:48:46;1.70;;;1.40;;
2638;SDS011;1329;51.384;7.122;2022-10-16T05:51:14;1.27;;;1.17;;
2638;SDS011;1329;51.384;7.122;2022-10-16T05:53:41;1.30;;;1.20;;
2638;SDS011;1329;51.384;7.122;2022-10-16T05:56:10;1.35;;;1.20;;
2638;SDS011;1329;51.384;7.122;2022-10-16T05:58:38;1.50;;;1.40;;
2638;SDS011;1329;51.384;7.122;2022-10-16T06:01:06;1.55;;;1.35;;
2638;SDS011;1329;51.384;7.122;2022-10-16T06:03:36;1.40;;;1.30;;
2638;SDS011;1329;51.384;7.122;2022-10-16T06:06:07;1.30;;;1.20;;
2638;SDS011;1329;51.384;7.122;2022-10-16T06:08:35;1.40;;;1.30;;
2638;SDS011;1329;51.384;7.122;2022-10-16T06:11:03;1.80;;;1.33;;
2638;SDS011;1329;51.384;7.122;2022-10-16T06:13:34;1.30;;;1.20;;
2638;SDS011;1329;51.384;7.122;2022-10-16T06:16:01;1.50;;;1.40;;
2638;SDS011;1329;51.384;7.122;2022-10-16T06:18:30;1.50;;;1.38;;
2638;SDS011;1329;51.384;7.122;2022-10-16T06:20:57;1.70;;;1.48;;
2638;SDS011;1329;51.384;7.122;2022-10-16T06:23:27;1.30;;;1.20;;
2638;SDS011;1329;51.384;7.122;2022-10-16T06:26:03;2.25;;;1.52;;
2638;SDS011;1329;51.384;7.122;2022-10-16T06:28:32;2.97;;;1.65;;
2638;SDS011;1329;51.384;7.122;2022-10-16T06:31:00;1.50;;;1.40;;
2638;SDS011;1329;51.384;7.122;2022-10-16T06:33:29;1.42;;;1.30;;
2638;SDS011;1329;51.384;7.122;2022-10-16T06:35:59;1.88;;;1.38;;
2638;SDS011;1329;51.384;7.122;2022-10-16T06:38:28;1.73;;;1.35;;
2638;SDS011;1329;51.384;7.122;2022-10-16T06:40:56;1.60;;;1.50;;
2638;SDS011;1329;51.384;7.122;2022-10-16T06:43:24;1.60;;;1.50;;
2638;SDS011;1329;51.384;7.122;2022-10-16T06:45:53;1.45;;;1.35;;
2638;SDS011;1329;51.384;7.122;2022-10-16T06:48:22;1.85;;;1.67;;
2638;SDS011;1329;51.384;7.122;2022-10-16T06:50:56;1.83;;;1.35;;
2638;SDS011;1329;51.384;7.122;2022-10-16T06:53:24;1.40;;;1.30;;
2638;SDS011;1329;51.384;7.122;2022-10-16T06:55:53;1.88;;;1.50;;
2638;SDS011;1329;51.384;7.122;2022-10-16T06:58:20;1.70;;;1.60;;
2638;SDS011;1329;51.384;7.122;2022-10-16T07:00:48;3.90;;;1.80;;
2638;SDS011;1329;51.384;7.122;2022-10-16T07:03:23;2.47;;;1.60;;
2638;SDS011;1329;51.384;7.122;2022-10-16T07:05:50;1.73;;;1.50;;
2638;SDS011;1329;51.384;7.122;2022-10-16T07:08:17;1.80;;;1.70;;
2638;SDS011;1329;51.384;7.122;2022-10-16T07:10:44;1.75;;;1.65;;
2638;SDS011;1329;51.384;7.122;2022-10-16T07:13:11;2.05;;;1.70;;
2638;SDS011;1329;51.384;7.122;2022-10-16T07:15:39;4.13;;;1.73;;
2638;SDS011;1329;51.384;7.122;2022-10-16T07:18:08;2.58;;;1.50;;
2638;SDS011;1329;51.384;7.122;2022-10-16T07:20:35;1.70;;;1.60;;
2638;SDS011;1329;51.384;7.122;2022-10-16T07:23:03;2.88;;;1.55;;
2638;SDS011;1329;51.384;7.122;2022-10-16T07:25:30;1.63;;;1.52;;
2638;SDS011;1329;51.384;7.122;2022-10-16T07:27:57;1.60;;;1.50;;
2638;SDS011;1329;51.384;7.122;2022-10-16T07:30:24;1.70;;;1.58;;
2638;SDS011;1329;51.384;7.122;2022-10-16T07:32:51;2.05;;;1.48;;
2638;SDS011;1329;51.384;7.122;2022-10-16T07:35:20;1.88;;;1.65;;
2638;SDS011;1329;51.384;7.122;2022-10-16T07:37:47;1.70;;;1.60;;
2638;SDS011;1329;51.384;7.122;2022-10-16T07:40:14;2.00;;;1.60;;
2638;SDS011;1329;51.384;7.122;2022-10-16T07:42:41;1.77;;;1.52;;
2638;SDS011;1329;51.384;7.122;2022-10-16T07:45:08;1.73;;;1.60;;
2638;SDS011;1329;51.384;7.122;2022-10-16T07:47:35;1.77;;;1.50;;
2638;SDS011;1329;51.384;7.122;2022-10-16T07:50:02;2.08;;;1.52;;
2638;SDS011;1329;51.384;7.122;2022-10-16T07:52:32;1.60;;;1.42;;
2638;SDS011;1329;51.384;7.122;2022-10-16T07:54:59;3.03;;;1.40;;
2638;SDS011;1329;51.384;7.122;2022-10-16T07:57:26;2.35;;;1.70;;
2638;SDS011;1329;51.384;7.122;2022-10-16T07:59:53;1.60;;;1.50;;
2638;SDS011;1329;51.384;7.122;2022-10-16T08:02:20;1.95;;;1.75;;
2638;SDS011;1329;51.384;7.122;2022-10-16T08:04:47;2.28;;;1.95;;
2638;SDS011;1329;51.384;7.122;2022-10-16T08:07:15;1.80;;;1.60;;
2638;SDS011;1329;51.384;7.122;2022-10-16T08:09:43;1.50;;;1.40;;
2638;SDS011;1329;51.384;7.122;2022-10-16T08:12:11;2.33;;;1.83;;
2638;SDS011;1329;51.384;7.122;2022-10-16T08:14:38;1.70;;;1.60;;
2638;SDS011;1329;51.384;7.122;2022-10-16T08:17:05;1.90;;;1.70;;
2638;SDS011;1329;51.384;7.122;2022-10-16T08:19:33;2.38;;;1.85;;
2638;SDS011;1329;51.384;7.122;2022-10-16T08:22:00;1.65;;;1.55;;
2638;SDS011;1329;51.384;7.122;2022-10-16T08:24:27;1.80;;;1.70;;
2638;SDS011;1329;51.384;7.122;2022-10-16T08:26:57;1.73;;;1.60;;
2638;SDS011;1329;51.384;7.122;2022-10-16T08:29:24;1.88;;;1.77;;
2638;SDS011;1329;51.384;7.122;2022-10-16T08:31:51;1.67;;;1.58;;
2638;SDS011;1329;51.384;7.122;2022-10-16T08:34:19;2.22;;;1.70;;
2638;SDS011;1329;51.384;7.122;2022-10-16T08:36:46;1.88;;;1.58;;
2638;SDS011;1329;51.384;7.122;2022-10-16T08:39:15;2.03;;;1.65;;
2638;SDS011;1329;51.384;7.122;2022-10-16T08:42:03;2.70;;;1.83;;
2638;SDS011;1329;51.384;7.122;2022-10-16T08:44:53;1.70;;;1.25;;
2638;SDS011;1329;51.384;7.122;2022-10-16T08:47:48;3.67;;;1.20;;
2638;SDS011;1329;51.384;7.122;2022-10-16T08:50:24;1.20;;;1.02;;
2638;SDS011;1329;51.384;7.122;2022-10-16T08:52:54;1.38;;;1.10;;
2638;SDS011;1329;51.384;7.122;2022-10-16T08:55:30;1.92;;;1.10;;
2638;SDS011;1329;51.384;7.122;2022-10-16T08:58:07;1.10;;;1.00;;
2638;SDS011;1329;51.384;7.122;2022-10-16T09:00:39;2.47;;;1.33;;
2638;SDS011;1329;51.384;7.122;2022-10-16T09:03:09;1.75;;;1.08;;
2638;SDS011;1329;51.384;7.122;2022-10-16T09:09:07;1.50;;;1.40;;
2638;SDS011;1329;51.384;7.122;2022-10-16T09:11:47;1.27;;;1.10;;
2638;SDS011;1329;51.384;7.122;2022-10-16T09:14:37;1.90;;;1.10;;
2638;SDS011;1329;51.384;7.122;2022-10-16T09:20:19;1.77;;;1.23;;
2638;SDS011;1329;51.384;7.122;2022-10-16T09:22:55;1.40;;;1.30;;
2638;SDS011;1329;51.384;7.122;2022-10-16T09:25:39;2.40;;;1.40;;
2638;SDS011;1329;51.384;7.122;2022-10-16T09:28:12;2.08;;;1.10;;
2638;SDS011;1329;51.384;7.122;2022-10-16T09:30:42;2.28;;;1.00;;
2638;SDS011;1329;51.384;7.122;2022-10-16T09:33:10;1.67;;;1.35;;
2638;SDS011;1329;51.384;7.122;2022-10-16T09:35:40;2.10;;;1.17;;
2638;SDS011;1329;51.384;7.122;2022-10-16T09:38:09;1.65;;;1.40;;
2638;SDS011;1329;51.384;7.122;2022-10-16T09:40:49;2.33;;;1.40;;
2638;SDS011;1329;51.384;7.122;2022-10-16T09:43:21;2.75;;;1.23;;
2638;SDS011;1329;51.384;7.122;2022-10-16T09:45:58;2.08;;;1.25;;
2638;SDS011;1329;51.384;7.122;2022-10-16T09:48:29;1.98;;;0.93;;
2638;SDS011;1329;51.384;7.122;2022-10-16T09:51:03;1.65;;;1.00;;
2638;SDS011;1329;51.384;7.122;2022-10-16T09:53:40;1.75;;;0.95;;
2638;SDS011;1329;51.384;7.122;2022-10-16T09:56:10;2.53;;;1.23;;
2638;SDS011;1329;51.384;7.122;2022-10-16T09:58:43;1.10;;;1.00;;
2638;SDS011;1329;51.384;7.122;2022-10-16T10:01:18;1.13;;;0.90;;
2638;SDS011;1329;51.384;7.122;2022-10-16T10:03:47;1.33;;;0.93;;
2638;SDS011;1329;51.384;7.122;2022-10-16T10:06:19;1.08;;;0.80;;
2638;SDS011;1329;51.384;7.122;2022-10-16T10:08:54;2.28;;;0.90;;
2638;SDS011;1329;51.384;7.122;2022-10-16T10:11:37;0.70;;;0.70;;
2638;SDS011;1329;51.384;7.122;2022-10-16T10:14:17;1.02;;;0.70;;
2638;SDS011;1329;51.384;7.122;2022-10-16T10:19:42;1.35;;;0.80;;
2638;SDS011;1329;51.384;7.122;2022-10-16T10:22:22;3.95;;;0.90;;
2638;SDS011;1329;51.384;7.122;2022-10-16T10:31:09;1.00;;;0.80;;
2638;SDS011;1329;51.384;7.122;2022-10-16T10:33:47;2.20;;;0.70;;
2638;SDS011;1329;51.384;7.122;2022-10-16T10:36:22;1.05;;;0.82;;
2638;SDS011;1329;51.384;7.122;2022-10-16T10:38:57;2.03;;;0.90;;
2638;SDS011;1329;51.384;7.122;2022-10-16T10:41:40;2.47;;;0.90;;
2638;SDS011;1329;51.384;7.122;2022-10-16T10:44:34;2.58;;;1.05;;
2638;SDS011;1329;51.384;7.122;2022-10-16T10:47:18;0.70;;;0.70;;
2638;SDS011;1329;51.384;7.122;2022-10-16T10:50:06;3.15;;;0.90;;
2638;SDS011;1329;51.384;7.122;2022-10-16T10:52:42;1.75;;;0.73;;
2638;SDS011;1329;51.384;7.122;2022-10-16T10:55:22;0.70;;;0.70;;
2638;SDS011;1329;51.384;7.122;2022-10-16T10:58:11;0.90;;;0.70;;
2638;SDS011;1329;51.384;7.122;2022-10-16T11:01:25;1.50;;;0.70;;
2638;SDS011;1329;51.384;7.122;2022-10-16T11:04:05;0.80;;;0.70;;
2638;SDS011;1329;51.384;7.122;2022-10-16T11:07:11;2.22;;;0.73;;
2638;SDS011;1329;51.384;7.122;2022-10-16T11:09:45;2.17;;;0.90;;
2638;SDS011;1329;51.384;7.122;2022-10-16T11:12:17;1.35;;;0.70;;
2638;SDS011;1329;51.384;7.122;2022-10-16T11:14:49;0.95;;;0.77;;
2638;SDS011;1329;51.384;7.122;2022-10-16T11:17:25;1.40;;;0.88;;
2638;SDS011;1329;51.384;7.122;2022-10-16T11:19:56;1.45;;;0.80;;
2638;SDS011;1329;51.384;7.122;2022-10-16T11:22:32;0.93;;;0.75;;
2638;SDS011;1329;51.384;7.122;2022-10-16T11:25:04;1.23;;;0.65;;
2638;SDS011;1329;51.384;7.122;2022-10-16T11:27:40;1.10;;;0.60;;
2638;SDS011;1329;51.384;7.122;2022-10-16T11:30:14;1.48;;;0.70;;
2638;SDS011;1329;51.384;7.122;2022-10-16T11:32:56;2.13;;;0.95;;
2638;SDS011;1329;51.384;7.122;2022-10-16T11:35:41;2.67;;;0.82;;
2638;SDS011;1329;51.384;7.122;2022-10-16T11:38:18;0.63;;;0.60;;
2638;SDS011;1329;51.384;7.122;2022-10-16T11:40:58;1.38;;;0.63;;
2638;SDS011;1329;51.384;7.122;2022-10-16T11:43:32;2.03;;;0.77;;
2638;SDS011;1329;51.384;7.122;2022-10-16T11:46:05;0.70;;;0.57;;
2638;SDS011;1329;51.384;7.122;2022-10-16T11:48:39;1.40;;;0.70;;
2638;SDS011;1329;51.384;7.122;2022-10-16T11:51:14;1.60;;;0.82;;
2638;SDS011;1329;51.384;7.122;2022-10-16T11:53:51;1.40;;;0.80;;
2638;SDS011;1329;51.384;7.122;2022-10-16T11:56:24;1.23;;;0.88;;
2638;SDS011;1329;51.384;7.122;2022-10-16T11:58:53;2.25;;;0.75;;
2638;SDS011;1329;51.384;7.122;2022-10-16T12:01:26;1.17;;;0.90;;
2638;SDS011;1329;51.384;7.122;2022-10-16T12:04:02;0.70;;;0.57;;
2638;SDS011;1329;51.384;7.122;2022-10-16T12:06:46;1.60;;;0.70;;
2638;SDS011;1329;51.384;7.122;2022-10-16T12:09:22;1.17;;;0.80;;
2638;SDS011;1329;51.384;7.122;2022-10-16T12:11:54;2.15;;;0.80;;
2638;SDS011;1329;51.384;7.122;2022-10-16T12:14:22;1.05;;;0.60;;
2638;SDS011;1329;51.384;7.122;2022-10-16T12:17:04;1.63;;;0.75;;
2638;SDS011;1329;51.384;7.122;2022-10-16T12:19:59;0.85;;;0.60;;
2638;SDS011;1329;51.384;7.122;2022-10-16T12:22:33;2.35;;;0.70;;
2638;SDS011;1329;51.384;7.122;2022-10-16T12:25:02;1.02;;;0.70;;
2638;SDS011;1329;51.384;7.122;2022-10-16T12:27:31;1.02;;;0.70;;
2638;SDS011;1329;51.384;7.122;2022-10-16T12:30:01;1.15;;;0.75;;
2638;SDS011;1329;51.384;7.122;2022-10-16T12:32:31;1.20;;;0.70;;
2638;SDS011;1329;51.384;7.122;2022-10-16T12:35:00;0.77;;;0.70;;
2638;SDS011;1329;51.384;7.122;2022-10-16T12:37:31;1.38;;;0.70;;
2638;SDS011;1329;51.384;7.122;2022-10-16T12:40:12;1.35;;;0.80;;
2638;SDS011;1329;51.384;7.122;2022-10-16T12:42:42;2.17;;;1.00;;
2638;SDS011;1329;51.384;7.122;2022-10-16T12:45:21;1.70;;;1.10;;
2638;SDS011;1329;51.384;7.122;2022-10-16T12:47:54;1.48;;;0.75;;
2638;SDS011;1329;51.384;7.122;2022-10-16T12:50:35;2.25;;;0.70;;
2638;SDS011;1329;51.384;7.122;2022-10-16T12:53:17;1.40;;;0.70;;
2638;SDS011;1329;51.384;7.122;2022-10-16T12:55:52;1.95;;;0.73;;
2638;SDS011;1329;51.384;7.122;2022-10-16T13:04:31;2.42;;;0.90;;
2638;SDS011;1329;51.384;7.122;2022-10-16T13:07:43;1.00;;;0.63;;
2638;SDS011;1329;51.384;7.122;2022-10-16T13:10:23;0.80;;;0.70;;
2638;SDS011;1329;51.384;7.122;2022-10-16T13:13:05;0.90;;;0.60;;
2638;SDS011;1329;51.384;7.122;2022-10-16T13:16:01;1.05;;;0.70;;
2638;SDS011;1329;51.384;7.122;2022-10-16T13:18:48;0.57;;;0.52;;
2638;SDS011;1329;51.384;7.122;2022-10-16T13:21:28;2.05;;;0.60;;
2638;SDS011;1329;51.384;7.122;2022-10-16T13:24:09;0.77;;;0.50;;
2638;SDS011;1329;51.384;7.122;2022-10-16T13:26:48;0.98;;;0.60;;
2638;SDS011;1329;51.384;7.122;2022-10-16T13:29:29;1.05;;;0.60;;
2638;SDS011;1329;51.384;7.122;2022-10-16T13:31:59;1.35;;;0.70;;
2638;SDS011;1329;51.384;7.122;2022-10-16T13:34:41;1.13;;;0.90;;
2638;SDS011;1329;51.384;7.122;2022-10-16T13:37:16;0.88;;;0.75;;
2638;SDS011;1329;51.384;7.122;2022-10-16T13:39:45;0.63;;;0.60;;
2638;SDS011;1329;51.384;7.122;2022-10-16T13:42:15;1.85;;;0.70;;
2638;SDS011;1329;51.384;7.122;2022-10-16T13:44:53;1.27;;;0.68;;
2638;SDS011;1329;51.384;7.122;2022-10-16T13:47:24;0.88;;;0.85;;
2638;SDS011;1329;51.384;7.122;2022-10-16T13:50:03;1.55;;;1.05;;
2638;SDS011;1329;51.384;7.122;2022-10-16T13:52:33;1.63;;;0.98;;
2638;SDS011;1329;51.384;7.122;2022-10-16T13:55:00;1.50;;;0.90;;
2638;SDS011;1329;51.384;7.122;2022-10-16T13:57:28;1.70;;;1.00;;
2638;SDS011;1329;51.384;7.122;2022-10-16T13:59:57;0.93;;;0.90;;
2638;SDS011;1329;51.384;7.122;2022-10-16T14:02:30;1.25;;;0.98;;
2638;SDS011;1329;51.384;7.122;2022-10-16T14:05:04;1.73;;;0.80;;
2638;SDS011;1329;51.384;7.122;2022-10-16T14:07:38;0.90;;;0.80;;
2638;SDS011;1329;51.384;7.122;2022-10-16T14:10:18;0.60;;;0.60;;
2638;SDS011;1329;51.384;7.122;2022-10-16T14:12:56;0.98;;;0.80;;
2638;SDS011;1329;51.384;7.122;2022-10-16T14:15:34;1.60;;;0.70;;
2638;SDS011;1329;51.384;7.122;2022-10-16T14:18:03;1.67;;;0.88;;
2638;SDS011;1329;51.384;7.122;2022-10-16T14:20:33;1.67;;;0.70;;
2638;SDS011;1329;51.384;7.122;2022-10-16T14:23:04;1.55;;;0.70;;
2638;SDS011;1329;51.384;7.122;2022-10-16T14:25:49;1.25;;;0.70;;
2638;SDS011;1329;51.384;7.122;2022-10-16T14:28:25;1.10;;;0.60;;
2638;SDS011;1329;51.384;7.122;2022-10-16T14:30:54;1.58;;;0.85;;
2638;SDS011;1329;51.384;7.122;2022-10-16T14:33:30;1.52;;;0.70;;
2638;SDS011;1329;51.384;7.122;2022-10-16T14:36:04;1.20;;;0.82;;
2638;SDS011;1329;51.384;7.122;2022-10-16T14:38:39;0.80;;;0.80;;
2638;SDS011;1329;51.384;7.122;2022-10-16T14:41:09;0.80;;;0.65;;
2638;SDS011;1329;51.384;7.122;2022-10-16T14:43:43;3.58;;;0.80;;
2638;SDS011;1329;51.384;7.122;2022-10-16T14:46:15;2.75;;;0.90;;
2638;SDS011;1329;51.384;7.122;2022-10-16T14:48:47;1.58;;;0.70;;
2638;SDS011;1329;51.384;7.122;2022-10-16T14:51:17;1.00;;;0.80;;
2638;SDS011;1329;51.384;7.122;2022-10-16T14:53:47;1.15;;;0.60;;
2638;SDS011;1329;51.384;7.122;2022-10-16T14:56:17;0.73;;;0.70;;
2638;SDS011;1329;51.384;7.122;2022-10-16T14:58:52;1.08;;;0.70;;
2638;SDS011;1329;51.384;7.122;2022-10-16T15:01:23;0.85;;;0.70;;
2638;SDS011;1329;51.384;7.122;2022-10-16T15:03:51;1.00;;;0.73;;
2638;SDS011;1329;51.384;7.122;2022-10-16T15:06:20;1.08;;;0.70;;
2638;SDS011;1329;51.384;7.122;2022-10-16T15:08:48;0.65;;;0.65;;
2638;SDS011;1329;51.384;7.122;2022-10-16T15:11:16;1.20;;;0.98;;
2638;SDS011;1329;51.384;7.122;2022-10-16T15:13:45;1.23;;;0.80;;
2638;SDS011;1329;51.384;7.122;2022-10-16T15:16:13;2.03;;;0.90;;
2638;SDS011;1329;51.384;7.122;2022-10-16T15:18:43;1.83;;;1.00;;
2638;SDS011;1329;51.384;7.122;2022-10-16T15:21:12;1.02;;;0.90;;
2638;SDS011;1329;51.384;7.122;2022-10-16T15:23:55;2.08;;;0.90;;
2638;SDS011;1329;51.384;7.122;2022-10-16T15:26:23;2.65;;;0.70;;
2638;SDS011;1329;51.384;7.122;2022-10-16T15:28:51;1.55;;;1.00;;
2638;SDS011;1329;51.384;7.122;2022-10-16T15:31:19;2.10;;;1.13;;
2638;SDS011;1329;51.384;7.122;2022-10-16T15:33:51;3.80;;;0.80;;
2638;SDS011;1329;51.384;7.122;2022-10-16T15:36:26;1.02;;;0.90;;
2638;SDS011;1329;51.384;7.122;2022-10-16T15:38:54;1.45;;;1.17;;
2638;SDS011;1329;51.384;7.122;2022-10-16T15:41:23;1.40;;;0.80;;
2638;SDS011;1329;51.384;7.122;2022-10-16T15:43:50;2.72;;;1.38;;
2638;SDS011;1329;51.384;7.122;2022-10-16T15:46:18;1.92;;;1.30;;
2638;SDS011;1329;51.384;7.122;2022-10-16T15:48:47;2.10;;;1.20;;
2638;SDS011;1329;51.384;7.122;2022-10-16T15:51:16;1.33;;;1.08;;
2638;SDS011;1329;51.384;7.122;2022-10-16T15:53:44;0.90;;;0.90;;
2638;SDS011;1329;51.384;7.122;2022-10-16T15:56:12;2.25;;;1.30;;
2638;SDS011;1329;51.384;7.122;2022-10-16T15:58:43;2.72;;;1.95;;
2638;SDS011;1329;51.384;7.122;2022-10-16T16:01:11;2.35;;;2.10;;
2638;SDS011;1329;51.384;7.122;2022-10-16T16:03:38;1.85;;;1.55;;